METAR Data
IDs: Format: Raw Decoded Include TAF

Data at: 0408 UTC 24 Jun 2021

METAR for:KDLZ (Delaware Muni, OH, US)
Text:KDLZ 240355Z AUTO 15004KT 10SM CLR 21/12 A3019 RMK AO2
Temperature: 21.0°C ( 70°F)
Dewpoint: 12.0°C ( 54°F) [RH = 56%]
Pressure (altimeter):30.19 inches Hg (1022.4 mb)
Winds:from the SSE (150 degrees) at 5 MPH (4 knots; 2.1 m/s)
Visibility:10 or more sm (16+ km)
Ceiling:at least 12,000 feet AGL
Clouds:sky clear below 12,000 feet AGL
QC Flag:automated observation with no human augmentation